createdAt,value
2018-09-03T00:01:34.917Z,85.40
2018-09-03T00:04:02.090Z,85.40
2018-09-03T00:06:29.253Z,85.00
2018-09-03T00:08:56.413Z,84.60
2018-09-03T00:11:23.592Z,84.80
2018-09-03T00:13:50.794Z,84.90
2018-09-03T00:16:18.221Z,84.80
2018-09-03T00:18:45.386Z,84.70
2018-09-03T00:21:12.577Z,84.70
2018-09-03T00:23:39.748Z,84.80
2018-09-03T00:26:06.918Z,84.70
2018-09-03T00:28:34.089Z,84.60
2018-09-03T00:31:07.009Z,84.80
2018-09-03T00:33:39.975Z,85.30
2018-09-03T00:36:12.897Z,85.40
2018-09-03T00:38:46.125Z,85.20
2018-09-03T00:41:18.968Z,85.10
2018-09-03T00:43:51.805Z,84.90
2018-09-03T00:46:24.676Z,84.70
2018-09-03T00:48:51.852Z,84.20
2018-09-03T00:51:19.013Z,84.50
2018-09-03T00:53:46.209Z,84.40
2018-09-03T00:56:13.569Z,84.60
2018-09-03T00:58:40.737Z,84.30
2018-09-03T01:01:07.897Z,83.70
2018-09-03T01:03:35.085Z,83.80
2018-09-03T01:06:02.249Z,83.80
2018-09-03T01:08:29.420Z,84.00
2018-09-03T01:10:56.576Z,84.10
2018-09-03T01:13:23.741Z,84.20
2018-09-03T01:15:50.903Z,84.10
2018-09-03T01:18:18.083Z,83.40
2018-09-03T01:20:47.112Z,83.70
2018-09-03T01:23:14.301Z,83.60
2018-09-03T01:25:41.453Z,83.30
2018-09-03T01:28:08.624Z,83.50
2018-09-03T01:30:35.785Z,83.80
2018-09-03T01:33:02.984Z,83.60
2018-09-03T01:35:30.175Z,83.90
2018-09-03T01:37:57.344Z,83.80
2018-09-03T01:40:24.496Z,84.10
2018-09-03T01:42:51.658Z,84.20
2018-09-03T01:45:18.877Z,84.20
2018-09-03T01:47:46.106Z,84.20
2018-09-03T01:50:13.276Z,84.30
2018-09-03T01:52:40.505Z,84.10
2018-09-03T01:55:14.389Z,83.80
2018-09-03T01:57:41.578Z,83.90
2018-09-03T02:00:08.749Z,83.90
2018-09-03T02:02:35.929Z,84.00
2018-09-03T02:05:03.143Z,83.80
2018-09-03T02:07:30.341Z,83.30
2018-09-03T02:09:57.488Z,83.40
2018-09-03T02:12:24.656Z,83.40
2018-09-03T02:14:51.832Z,83.40
2018-09-03T02:17:19.029Z,83.30
2018-09-03T02:19:46.197Z,83.70
2018-09-03T02:22:13.369Z,83.70
2018-09-03T02:24:40.531Z,83.30
2018-09-03T02:27:07.697Z,83.00
2018-09-03T02:29:34.929Z,82.80
2018-09-03T02:32:08.889Z,82.70
2018-09-03T02:34:36.065Z,83.00
2018-09-03T02:37:03.233Z,83.20
2018-09-03T02:39:30.421Z,83.30
2018-09-03T02:41:57.577Z,83.40
2018-09-03T02:44:24.777Z,83.20
2018-09-03T02:46:51.957Z,83.70
2018-09-03T02:49:19.121Z,83.50
2018-09-03T02:51:46.873Z,83.70
2018-09-03T02:54:14.044Z,83.90
2018-09-03T02:56:41.197Z,83.90
2018-09-03T02:59:08.361Z,83.40
2018-09-03T03:01:35.509Z,83.20
2018-09-03T03:04:02.693Z,83.20
2018-09-03T03:06:29.862Z,83.10
2018-09-03T03:08:57.065Z,83.20
2018-09-03T03:11:24.713Z,82.40
2018-09-03T03:13:51.881Z,82.50
2018-09-03T03:16:19.052Z,82.90
2018-09-03T03:18:46.237Z,82.80
2018-09-03T03:21:13.394Z,82.50
2018-09-03T03:23:40.584Z,82.80
2018-09-03T03:26:07.752Z,82.90
2018-09-03T03:28:34.919Z,83.30
2018-09-03T03:31:02.081Z,83.20
2018-09-03T03:33:29.246Z,83.50
2018-09-03T03:35:56.503Z,82.80
2018-09-03T03:38:23.801Z,82.90
2018-09-03T03:40:50.969Z,83.00
2018-09-03T03:43:18.148Z,83.20
2018-09-03T03:45:45.301Z,83.30
2018-09-03T03:48:12.474Z,83.30
2018-09-03T03:50:39.664Z,83.40
2018-09-03T03:53:06.890Z,83.30
2018-09-03T03:55:34.073Z,83.30
2018-09-03T03:58:01.225Z,83.40
2018-09-03T04:00:28.389Z,83.30
2018-09-03T04:02:55.537Z,83.30
2018-09-03T04:05:22.700Z,83.30
2018-09-03T04:07:49.928Z,83.20
2018-09-03T04:10:17.103Z,83.00
2018-09-03T04:12:50.129Z,82.90
2018-09-03T04:15:17.293Z,82.90
2018-09-03T04:17:44.449Z,82.80
2018-09-03T04:20:11.625Z,82.80
2018-09-03T04:22:38.800Z,83.00
2018-09-03T04:25:06.005Z,83.40
2018-09-03T04:27:33.164Z,83.20
2018-09-03T04:30:00.330Z,83.30
2018-09-03T04:32:27.497Z,83.30
2018-09-03T04:34:54.697Z,83.50
2018-09-03T04:37:21.904Z,83.40
2018-09-03T04:39:49.110Z,83.00
2018-09-03T04:42:16.281Z,83.10
2018-09-03T04:44:43.445Z,83.10
2018-09-03T04:47:10.609Z,83.40
2018-09-03T04:49:37.769Z,83.30
2018-09-03T04:52:05.078Z,83.20
2018-09-03T04:54:32.464Z,83.40
2018-09-03T04:56:59.627Z,83.30
2018-09-03T04:59:26.803Z,83.20
2018-09-03T05:01:53.963Z,83.40
2018-09-03T05:04:21.137Z,83.70
2018-09-03T05:06:48.291Z,83.70
2018-09-03T05:09:15.468Z,84.00
2018-09-03T05:11:42.734Z,84.00
2018-09-03T05:14:09.923Z,84.20
2018-09-03T05:16:37.085Z,84.00
2018-09-03T05:19:04.709Z,84.30
2018-09-03T05:21:31.857Z,84.10
2018-09-03T05:23:59.020Z,83.90
2018-09-03T05:26:26.225Z,83.90
2018-09-03T05:28:53.385Z,83.80
2018-09-03T05:31:20.631Z,83.80
2018-09-03T05:33:47.789Z,83.80
2018-09-03T05:36:15.224Z,83.70
2018-09-03T05:38:42.406Z,83.70
2018-09-03T05:41:09.577Z,83.80
2018-09-03T05:43:37.009Z,83.90
2018-09-03T05:46:03.940Z,83.80
2018-09-03T05:48:31.165Z,83.80
2018-09-03T05:50:58.309Z,83.60
2018-09-03T05:53:25.569Z,83.40
2018-09-03T05:55:52.769Z,83.30
2018-09-03T05:58:20.058Z,83.30
2018-09-03T06:00:47.450Z,83.00
2018-09-03T06:03:14.605Z,83.40
2018-09-03T06:05:41.846Z,83.00
2018-09-03T06:08:09.032Z,82.80
2018-09-03T06:10:36.232Z,82.90
2018-09-03T06:13:03.391Z,83.10
2018-09-03T06:15:30.612Z,82.80
2018-09-03T06:17:58.175Z,82.70
2018-09-03T06:20:26.842Z,82.50
2018-09-03T06:22:54.083Z,82.60
2018-09-03T06:25:21.372Z,81.90
2018-09-03T06:27:48.671Z,82.30
2018-09-03T06:30:15.882Z,82.60
2018-09-03T06:32:43.267Z,82.70
2018-09-03T06:35:10.430Z,82.30
2018-09-03T06:37:37.634Z,82.50
2018-09-03T06:40:05.009Z,82.60
2018-09-03T06:42:32.471Z,82.40
2018-09-03T06:44:59.727Z,83.00
2018-09-03T06:47:27.071Z,83.30
2018-09-03T06:49:54.419Z,83.00
2018-09-03T06:52:21.617Z,82.80
2018-09-03T06:54:48.800Z,82.40
2018-09-03T06:57:16.026Z,82.40
2018-09-03T06:59:43.310Z,82.50
2018-09-03T07:02:10.451Z,82.80
2018-09-03T07:04:37.634Z,82.20
2018-09-03T07:07:05.423Z,81.70
2018-09-03T07:09:32.633Z,81.40
2018-09-03T07:11:59.831Z,80.80
2018-09-03T07:14:27.110Z,81.20
2018-09-03T07:16:54.386Z,80.70
2018-09-03T07:19:21.583Z,80.20
2018-09-03T07:21:55.724Z,80.20
2018-09-03T07:24:22.982Z,79.60
2018-09-03T07:26:50.201Z,78.80
2018-09-03T07:29:17.511Z,78.50
2018-09-03T07:34:18.769Z,78.60
2018-09-03T07:36:45.986Z,78.20
2018-09-03T07:39:13.201Z,78.30
2018-09-03T07:41:40.402Z,78.10
2018-09-03T07:44:07.608Z,78.00
2018-09-03T07:46:34.801Z,78.60
2018-09-03T07:49:01.991Z,78.20
2018-09-03T07:51:29.173Z,78.50
2018-09-03T07:53:56.351Z,78.50
2018-09-03T07:56:23.534Z,78.40
2018-09-03T07:58:50.785Z,78.40
2018-09-03T08:01:18.303Z,79.10
2018-09-03T08:03:45.430Z,78.20
2018-09-03T08:06:12.633Z,78.50
2018-09-03T08:08:39.849Z,78.60
2018-09-03T08:11:07.079Z,78.60
2018-09-03T08:13:38.398Z,78.40
2018-09-03T08:16:05.620Z,78.00
2018-09-03T08:18:32.798Z,78.20
2018-09-03T08:21:00.001Z,78.00
2018-09-03T08:23:27.238Z,78.70
2018-09-03T08:25:54.433Z,78.30
2018-09-03T08:28:21.758Z,77.50
2018-09-03T08:30:48.963Z,76.60
2018-09-03T08:33:16.166Z,76.40
2018-09-03T08:35:43.414Z,76.30
2018-09-03T08:38:10.546Z,76.50
2018-09-03T08:40:37.854Z,76.30
2018-09-03T08:43:05.354Z,76.00
2018-09-03T08:45:32.535Z,75.80
2018-09-03T08:47:59.735Z,75.40
2018-09-03T08:50:27.002Z,74.60
2018-09-03T08:52:54.390Z,74.20
2018-09-03T08:55:21.929Z,74.60
2018-09-03T08:57:49.141Z,74.20
2018-09-03T09:00:16.350Z,73.60
2018-09-03T09:02:43.839Z,72.50
2018-09-03T09:05:11.246Z,73.40
2018-09-03T09:07:38.458Z,73.60
2018-09-03T09:10:05.697Z,73.80
2018-09-03T09:12:39.646Z,73.20
2018-09-03T09:15:06.878Z,72.80
2018-09-03T09:17:34.410Z,72.40
2018-09-03T09:20:01.546Z,73.00
2018-09-03T09:22:28.786Z,73.20
2018-09-03T09:24:56.334Z,72.30
2018-09-03T09:27:23.605Z,71.80
2018-09-03T09:29:50.793Z,71.30
2018-09-03T09:32:18.098Z,70.60
2018-09-03T09:34:45.543Z,71.10
2018-09-03T09:37:12.785Z,70.80
2018-09-03T09:39:40.084Z,70.50
2018-09-03T09:42:07.322Z,70.70
2018-09-03T09:44:34.519Z,70.50
2018-09-03T09:47:02.087Z,71.10
2018-09-03T09:49:29.330Z,70.40
2018-09-03T09:51:56.546Z,70.20
2018-09-03T09:54:24.064Z,70.80
2018-09-03T09:56:51.257Z,71.00
2018-09-03T09:59:18.438Z,70.60
2018-09-03T10:01:45.630Z,70.60
2018-09-03T10:04:12.824Z,70.60
2018-09-03T10:06:40.059Z,69.90
2018-09-03T10:09:07.561Z,70.00
2018-09-03T10:11:34.789Z,69.80
2018-09-03T10:14:02.057Z,69.40
2018-09-03T10:16:29.233Z,68.40
2018-09-03T10:18:56.566Z,68.20
2018-09-03T10:21:23.741Z,67.70
2018-09-03T10:23:50.966Z,67.40
2018-09-03T10:26:18.299Z,67.30
2018-09-03T10:28:45.472Z,67.80
2018-09-03T10:31:12.681Z,68.50
2018-09-03T10:33:39.845Z,67.80
2018-09-03T10:36:07.015Z,67.00
2018-09-03T10:38:34.181Z,66.00
2018-09-03T10:41:01.376Z,65.90
2018-09-03T10:43:28.615Z,65.50
2018-09-03T10:45:55.770Z,65.50
2018-09-03T10:48:22.945Z,65.50
2018-09-03T10:50:50.114Z,65.90
2018-09-03T10:53:17.305Z,65.90
2018-09-03T10:55:44.464Z,65.00
2018-09-03T10:58:12.033Z,65.30
2018-09-03T11:00:39.281Z,64.70
2018-09-03T11:03:06.489Z,65.40
2018-09-03T11:05:33.661Z,65.50
2018-09-03T11:08:00.954Z,65.20
2018-09-03T11:10:28.297Z,65.10
2018-09-03T11:12:55.563Z,65.60
2018-09-03T11:15:22.762Z,64.70
2018-09-03T11:17:49.985Z,65.30
2018-09-03T11:20:21.229Z,64.80
2018-09-03T11:22:48.406Z,64.70
2018-09-03T11:25:16.963Z,64.50
2018-09-03T11:27:44.175Z,63.60
2018-09-03T11:30:11.349Z,63.70
2018-09-03T11:32:38.561Z,64.30
2018-09-03T11:35:05.819Z,64.00
2018-09-03T11:37:32.922Z,65.10
2018-09-03T11:40:00.086Z,65.00
2018-09-03T11:42:27.249Z,64.90
2018-09-03T11:44:54.413Z,64.70
2018-09-03T11:47:21.588Z,64.20
2018-09-03T11:49:48.786Z,63.00
2018-09-03T11:52:15.971Z,64.40
2018-09-03T11:54:43.121Z,64.40
2018-09-03T11:57:10.317Z,63.70
2018-09-03T11:59:37.501Z,64.10
2018-09-03T12:02:05.406Z,64.00
2018-09-03T12:04:32.505Z,64.10
2018-09-03T12:06:59.668Z,63.10
2018-09-03T12:09:26.824Z,63.70
2018-09-03T12:11:54.012Z,64.00
2018-09-03T12:14:28.474Z,63.10
2018-09-03T12:16:55.926Z,63.00
2018-09-03T12:19:23.117Z,62.90
2018-09-03T12:21:50.260Z,63.10
2018-09-03T12:24:17.440Z,63.20
2018-09-03T12:26:44.608Z,63.00
2018-09-03T12:29:11.772Z,62.60
2018-09-03T12:31:38.933Z,63.20
2018-09-03T12:34:06.125Z,63.30
2018-09-03T12:36:33.277Z,62.90
2018-09-03T12:39:00.569Z,62.60
2018-09-03T12:41:27.793Z,60.00
2018-09-03T12:43:54.969Z,59.90
2018-09-03T12:46:22.214Z,59.60
2018-09-03T12:48:49.313Z,58.90
2018-09-03T12:51:16.509Z,59.00
2018-09-03T12:53:43.653Z,59.40
2018-09-03T12:56:10.854Z,60.00
2018-09-03T12:58:38.027Z,60.30
2018-09-03T13:01:05.601Z,60.20
2018-09-03T13:03:32.757Z,61.10
2018-09-03T13:05:59.964Z,60.70
2018-09-03T13:08:27.124Z,61.40
2018-09-03T13:10:54.336Z,61.30
2018-09-03T13:13:21.585Z,61.40
2018-09-03T13:15:48.873Z,60.00
2018-09-03T13:18:16.037Z,60.30
2018-09-03T13:20:43.222Z,60.90
2018-09-03T13:23:10.411Z,61.10
2018-09-03T13:25:37.654Z,61.00
2018-09-03T13:28:05.261Z,60.20
2018-09-03T13:30:32.476Z,61.50
2018-09-03T13:32:59.697Z,60.80
2018-09-03T13:35:26.864Z,60.30
2018-09-03T13:37:54.029Z,60.80
2018-09-03T13:40:21.276Z,60.60
2018-09-03T13:42:48.433Z,60.80
2018-09-03T13:45:15.597Z,60.40
2018-09-03T13:47:42.749Z,60.10
2018-09-03T13:50:09.917Z,59.50
2018-09-03T13:52:37.072Z,59.90
2018-09-03T13:55:04.438Z,59.60
2018-09-03T13:57:31.721Z,60.90
2018-09-03T13:59:58.893Z,61.20
2018-09-03T14:02:26.707Z,60.40
2018-09-03T14:04:53.947Z,60.20
2018-09-03T14:07:21.133Z,59.90
2018-09-03T14:09:48.414Z,60.00
2018-09-03T14:12:15.519Z,59.70
2018-09-03T14:14:42.725Z,59.90
2018-09-03T14:17:09.995Z,60.10
2018-09-03T14:19:37.213Z,60.50
2018-09-03T14:22:04.374Z,59.10
2018-09-03T14:24:31.602Z,58.70
2018-09-03T14:27:05.521Z,59.10
2018-09-03T14:29:32.714Z,59.30
2018-09-03T14:31:59.900Z,59.70
2018-09-03T14:34:27.166Z,60.00
2018-09-03T14:36:54.442Z,59.90
2018-09-03T14:39:21.677Z,60.50
2018-09-03T14:41:48.860Z,60.40
2018-09-03T14:44:16.033Z,60.80
2018-09-03T14:46:43.205Z,60.20
2018-09-03T14:49:10.397Z,59.70
2018-09-03T14:51:37.577Z,59.70
2018-09-03T14:54:04.781Z,60.00
2018-09-03T14:56:31.965Z,61.60
2018-09-03T14:58:59.181Z,60.40
2018-09-03T15:01:26.353Z,60.40
2018-09-03T15:03:53.516Z,60.40
2018-09-03T15:06:20.685Z,59.20
2018-09-03T15:08:48.624Z,58.90
2018-09-03T15:11:15.790Z,59.40
2018-09-03T15:13:42.962Z,59.90
2018-09-03T15:16:10.141Z,60.10
2018-09-03T15:18:37.309Z,60.80
2018-09-03T15:21:11.221Z,60.60
2018-09-03T15:23:38.781Z,61.10
2018-09-03T15:26:06.143Z,61.70
2018-09-03T15:28:33.297Z,62.00
2018-09-03T15:31:00.525Z,61.70
2018-09-03T15:33:27.677Z,62.50
2018-09-03T15:35:54.929Z,62.10
2018-09-03T15:38:22.082Z,62.40
2018-09-03T15:40:49.249Z,62.60
2018-09-03T15:43:16.489Z,62.60
2018-09-03T15:45:43.678Z,62.60
2018-09-03T15:48:10.842Z,62.60
2018-09-03T15:50:38.014Z,62.60
2018-09-03T15:53:05.189Z,62.80
2018-09-03T15:55:32.513Z,63.10
2018-09-03T15:57:59.676Z,62.70
2018-09-03T16:00:26.951Z,62.60
2018-09-03T16:02:54.182Z,63.10
2018-09-03T16:05:21.313Z,63.70
2018-09-03T16:07:48.504Z,63.70
2018-09-03T16:10:15.660Z,63.50
2018-09-03T16:12:42.914Z,63.70
2018-09-03T16:15:10.078Z,64.00
2018-09-03T16:17:37.309Z,64.30
2018-09-03T16:20:04.630Z,64.70
2018-09-03T16:22:31.830Z,64.30
2018-09-03T16:24:59.025Z,64.40
2018-09-03T16:27:26.319Z,64.60
2018-09-03T16:29:53.401Z,64.70
2018-09-03T16:32:20.578Z,64.60
2018-09-03T16:34:47.753Z,64.50
2018-09-03T16:37:14.926Z,64.60
2018-09-03T16:39:42.089Z,64.80
2018-09-03T16:42:09.344Z,65.10
2018-09-03T16:44:36.445Z,64.40
2018-09-03T16:47:03.612Z,64.60
2018-09-03T16:49:30.794Z,65.10
2018-09-03T16:51:57.980Z,65.30
2018-09-03T16:54:25.152Z,65.30
2018-09-03T16:56:52.330Z,65.70
2018-09-03T16:59:19.857Z,65.80
2018-09-03T17:01:47.050Z,66.00
2018-09-03T17:04:14.261Z,65.70
2018-09-03T17:06:41.517Z,65.70
2018-09-03T17:09:08.700Z,66.00
2018-09-03T17:11:35.862Z,65.90
2018-09-03T17:14:03.061Z,66.30
2018-09-03T17:16:30.233Z,66.40
2018-09-03T17:18:57.423Z,66.50
2018-09-03T17:21:24.593Z,66.80
2018-09-03T17:23:51.773Z,67.20
2018-09-03T17:26:19.053Z,67.30
2018-09-03T17:28:46.266Z,67.40
2018-09-03T17:31:13.386Z,67.70
2018-09-03T17:33:40.790Z,68.00
2018-09-03T17:36:07.978Z,68.30
2018-09-03T17:38:35.185Z,68.60
2018-09-03T17:41:02.413Z,69.00
2018-09-03T17:43:29.585Z,69.10
2018-09-03T17:45:56.850Z,69.30
2018-09-03T17:48:24.147Z,70.10
2018-09-03T17:50:51.353Z,69.50
2018-09-03T17:53:18.556Z,69.80
2018-09-03T17:55:45.724Z,69.90
2018-09-03T17:58:13.013Z,70.10
2018-09-03T18:00:40.306Z,70.40
2018-09-03T18:03:07.521Z,70.70
2018-09-03T18:05:35.458Z,70.60
2018-09-03T18:08:02.750Z,70.80
2018-09-03T18:10:29.901Z,71.20
2018-09-03T18:12:57.073Z,71.40
2018-09-03T18:15:24.244Z,71.60
2018-09-03T18:17:51.409Z,71.50
2018-09-03T18:20:18.589Z,71.60
2018-09-03T18:22:45.769Z,71.90
2018-09-03T18:25:12.921Z,72.00
2018-09-03T18:27:40.089Z,72.10
2018-09-03T18:30:07.338Z,72.20
2018-09-03T18:32:34.561Z,72.10
2018-09-03T18:35:01.834Z,72.10
2018-09-03T18:37:29.032Z,72.20
2018-09-03T18:39:56.161Z,72.10
2018-09-03T18:42:23.549Z,72.10
2018-09-03T18:44:50.750Z,72.10
2018-09-03T18:47:17.949Z,72.20
2018-09-03T18:49:45.113Z,72.10
2018-09-03T18:52:12.348Z,71.70
2018-09-03T18:54:39.519Z,71.40
2018-09-03T18:57:06.720Z,71.50
2018-09-03T18:59:33.890Z,71.50
2018-09-03T19:02:01.072Z,71.50
2018-09-03T19:04:28.309Z,71.70
2018-09-03T19:06:55.481Z,71.30
2018-09-03T19:09:22.655Z,72.10
2018-09-03T19:11:49.819Z,71.90
2018-09-03T19:14:17.037Z,72.00
2018-09-03T19:16:44.214Z,72.00
2018-09-03T19:19:11.433Z,72.10
2018-09-03T19:21:38.646Z,72.00
2018-09-03T19:24:05.887Z,72.10
2018-09-03T19:26:33.064Z,72.00
2018-09-03T19:29:00.241Z,71.90
2018-09-03T19:31:27.397Z,72.20
2018-09-03T19:33:54.589Z,72.50
2018-09-03T19:36:21.758Z,72.60
2018-09-03T19:38:48.937Z,72.40
2018-09-03T19:41:16.112Z,72.80
2018-09-03T19:43:43.297Z,72.80
2018-09-03T19:46:10.463Z,73.10
2018-09-03T19:48:37.714Z,73.10
2018-09-03T19:51:05.000Z,73.30
2018-09-03T19:53:32.226Z,74.00
2018-09-03T19:55:59.364Z,73.60
2018-09-03T19:58:26.593Z,73.60
2018-09-03T20:00:53.793Z,73.70
2018-09-03T20:03:21.503Z,73.80
2018-09-03T20:05:48.714Z,73.50
2018-09-03T20:08:15.955Z,73.90
2018-09-03T20:10:43.078Z,73.90
2018-09-03T20:13:10.265Z,74.10
2018-09-03T20:15:37.433Z,74.10
2018-09-03T20:18:04.621Z,74.00
2018-09-03T20:20:31.798Z,74.00
2018-09-03T20:22:59.041Z,74.60
2018-09-03T20:25:26.166Z,74.00
2018-09-03T20:27:53.385Z,74.40
2018-09-03T20:30:20.541Z,74.30
2018-09-03T20:32:47.864Z,74.60
2018-09-03T20:35:15.124Z,74.60
2018-09-03T20:37:42.353Z,74.70
2018-09-03T20:40:09.516Z,75.10
2018-09-03T20:42:36.729Z,75.10
2018-09-03T20:45:03.944Z,75.20
2018-09-03T20:47:31.138Z,75.20
2018-09-03T20:49:58.319Z,76.10
2018-09-03T20:52:25.582Z,76.00
2018-09-03T20:54:52.782Z,75.20
2018-09-03T20:57:19.941Z,75.10
2018-09-03T20:59:47.114Z,75.40
2018-09-03T21:02:14.272Z,75.60
2018-09-03T21:04:41.437Z,75.70
2018-09-03T21:07:08.733Z,76.00
2018-09-03T21:09:36.385Z,76.00
2018-09-03T21:12:03.556Z,76.00
2018-09-03T21:14:30.789Z,76.20
2018-09-03T21:16:58.493Z,76.30
2018-09-03T21:19:25.668Z,76.10
2018-09-03T21:21:53.143Z,76.20
2018-09-03T21:24:20.272Z,76.40
2018-09-03T21:26:47.445Z,76.60
2018-09-03T21:29:14.630Z,76.70
2018-09-03T21:31:41.861Z,76.80
2018-09-03T21:34:09.032Z,77.70
2018-09-03T21:36:36.185Z,78.20
2018-09-03T21:39:03.799Z,77.90
2018-09-03T21:41:30.970Z,77.50
2018-09-03T21:43:58.189Z,77.80
2018-09-03T21:46:25.357Z,78.10
2018-09-03T21:48:52.527Z,78.70
2018-09-03T21:51:19.681Z,78.80
2018-09-03T21:53:46.849Z,79.50
2018-09-03T21:56:14.017Z,79.30
2018-09-03T21:58:41.189Z,79.30
2018-09-03T22:01:08.365Z,79.30
2018-09-03T22:03:35.542Z,79.30
2018-09-03T22:06:02.700Z,79.70
2018-09-03T22:08:29.910Z,79.90
2018-09-03T22:10:57.061Z,79.90
2018-09-03T22:13:24.316Z,79.60
2018-09-03T22:15:51.484Z,79.90
2018-09-03T22:18:18.659Z,79.80
2018-09-03T22:20:45.869Z,79.00
2018-09-03T22:23:13.684Z,78.60
2018-09-03T22:25:40.914Z,79.10
2018-09-03T22:28:08.078Z,78.50
2018-09-03T22:30:35.261Z,78.60
2018-09-03T22:33:02.417Z,78.70
2018-09-03T22:35:29.589Z,78.80
2018-09-03T22:37:56.766Z,79.00
2018-09-03T22:40:23.933Z,80.00
2018-09-03T22:42:51.093Z,79.20
2018-09-03T22:45:18.277Z,79.20
2018-09-03T22:47:45.449Z,79.40
2018-09-03T22:50:12.622Z,80.00
2018-09-03T22:52:39.786Z,80.00
2018-09-03T22:55:06.963Z,80.20
2018-09-03T22:57:34.229Z,80.00
2018-09-03T23:00:01.402Z,80.20
2018-09-03T23:02:28.568Z,80.30
2018-09-03T23:04:55.737Z,80.00
2018-09-03T23:07:22.889Z,80.20
2018-09-03T23:09:50.057Z,80.60
2018-09-03T23:12:17.225Z,80.90
2018-09-03T23:14:44.414Z,80.90
2018-09-03T23:17:11.565Z,80.90
2018-09-03T23:19:38.740Z,80.60
2018-09-03T23:22:05.929Z,80.90
2018-09-03T23:24:33.141Z,80.90
2018-09-03T23:27:00.301Z,80.90
2018-09-03T23:29:27.477Z,81.60
2018-09-03T23:31:54.689Z,82.20
2018-09-03T23:34:21.886Z,82.30
2018-09-03T23:36:49.044Z,82.50
2018-09-03T23:39:16.208Z,82.80
2018-09-03T23:41:43.577Z,82.60
2018-09-03T23:44:10.725Z,82.20
2018-09-03T23:46:37.918Z,81.90
2018-09-03T23:49:05.076Z,82.10
2018-09-03T23:51:32.240Z,82.40
2018-09-03T23:53:59.393Z,82.60
2018-09-03T23:56:26.590Z,82.60
2018-09-03T23:58:53.756Z,83.20
